createdAt,value
2022-12-11T00:00:33.007Z,92.60
2022-12-11T00:01:33.050Z,89.60
2022-12-11T00:02:33.084Z,88.00
2022-12-11T00:03:33.049Z,98.80
2022-12-11T00:04:32.997Z,106.50
2022-12-11T00:05:33.001Z,107.90
2022-12-11T00:06:32.952Z,100.60
2022-12-11T00:07:32.982Z,97.10
2022-12-11T00:08:33.050Z,100.30
2022-12-11T00:09:32.928Z,96.80
2022-12-11T00:10:37.505Z,92.80
2022-12-11T00:11:33.907Z,105.70
2022-12-11T00:12:32.901Z,107.60
2022-12-11T00:13:32.925Z,94.10
2022-12-11T00:14:32.880Z,104.80
2022-12-11T00:15:32.897Z,99.40
2022-12-11T00:16:32.876Z,97.30
2022-12-11T00:17:32.856Z,95.10
2022-12-11T00:18:32.792Z,92.10
2022-12-11T00:19:32.826Z,101.20
2022-12-11T00:20:32.869Z,101.10
2022-12-11T00:21:32.770Z,107.00
2022-12-11T00:22:33.470Z,98.40
2022-12-11T00:23:32.750Z,96.10
2022-12-11T00:24:32.726Z,103.40
2022-12-11T00:25:32.738Z,104.50
2022-12-11T00:26:32.700Z,111.00
2022-12-11T00:27:32.709Z,103.00
2022-12-11T00:28:32.640Z,101.40
2022-12-11T00:29:32.651Z,102.10
2022-12-11T00:30:32.641Z,107.90
2022-12-11T00:31:32.677Z,114.30
2022-12-11T00:32:37.498Z,111.00
2022-12-11T00:33:33.573Z,104.70
2022-12-11T00:34:32.619Z,116.00
2022-12-11T00:35:32.542Z,115.20
2022-12-11T00:36:32.599Z,112.90
2022-12-11T00:37:32.674Z,112.80
2022-12-11T00:38:32.582Z,111.80
2022-12-11T00:39:32.520Z,118.20
2022-12-11T00:40:32.520Z,120.60
2022-12-11T00:41:32.473Z,118.70
2022-12-11T00:42:32.511Z,120.00
2022-12-11T00:43:32.447Z,118.50
2022-12-11T00:44:32.599Z,113.40
2022-12-11T00:45:32.502Z,106.90
2022-12-11T00:46:32.434Z,107.60
2022-12-11T00:47:32.395Z,117.70
2022-12-11T00:48:32.433Z,118.90
2022-12-11T00:49:32.393Z,127.30
2022-12-11T00:50:32.420Z,127.60
2022-12-11T00:51:32.371Z,116.10
2022-12-11T00:52:32.356Z,106.10
2022-12-11T00:53:32.431Z,106.20
2022-12-11T00:54:32.361Z,103.20
2022-12-11T00:55:32.288Z,113.30
2022-12-11T00:56:32.364Z,129.20
2022-12-11T00:57:32.292Z,127.30
2022-12-11T00:58:32.278Z,120.60
2022-12-11T00:59:32.264Z,106.80
2022-12-11T01:00:32.249Z,108.50
2022-12-11T01:01:32.264Z,103.70
2022-12-11T01:02:33.180Z,100.40
2022-12-11T01:03:32.217Z,109.30
2022-12-11T01:04:32.197Z,110.80
2022-12-11T01:05:32.157Z,104.10
2022-12-11T01:06:32.206Z,112.10
2022-12-11T01:07:32.136Z,103.20
2022-12-11T01:08:38.166Z,115.10
2022-12-11T01:09:33.134Z,106.90
2022-12-11T01:10:32.150Z,115.70
2022-12-11T01:11:32.804Z,110.70
2022-12-11T01:12:32.099Z,115.10
2022-12-11T01:13:32.061Z,110.80
2022-12-11T01:14:32.125Z,113.10
2022-12-11T01:15:32.032Z,124.70
2022-12-11T01:16:32.101Z,126.80
2022-12-11T01:17:32.037Z,127.40
2022-12-11T01:18:32.720Z,116.70
2022-12-11T01:19:31.980Z,108.80
2022-12-11T01:20:32.054Z,104.00
2022-12-11T01:21:31.988Z,106.10
2022-12-11T01:22:31.971Z,112.50
2022-12-11T01:23:31.957Z,121.50
2022-12-11T01:24:31.941Z,126.90
2022-12-11T01:25:31.901Z,123.90
2022-12-11T01:26:31.978Z,113.90
2022-12-11T01:27:31.873Z,112.00
2022-12-11T01:28:31.918Z,108.90
2022-12-11T01:29:31.879Z,105.90
2022-12-11T01:30:31.908Z,119.20
2022-12-11T01:31:31.849Z,117.30
2022-12-11T01:32:31.874Z,124.20
2022-12-11T01:33:31.801Z,109.50
2022-12-11T01:34:31.842Z,108.90
2022-12-11T01:35:31.774Z,111.40
2022-12-11T01:36:31.811Z,102.70
2022-12-11T01:37:31.790Z,115.40
2022-12-11T01:38:31.795Z,107.60
2022-12-11T01:39:31.750Z,122.70
2022-12-11T01:40:31.735Z,122.40
2022-12-11T01:41:31.696Z,113.10
2022-12-11T01:42:31.741Z,112.00
2022-12-11T01:43:31.673Z,110.30
2022-12-11T01:44:31.822Z,122.70
2022-12-11T01:45:31.671Z,118.20
2022-12-11T01:46:31.732Z,131.90
2022-12-11T01:47:31.650Z,128.20
2022-12-11T01:48:31.635Z,117.20
2022-12-11T01:49:31.595Z,111.70
2022-12-11T01:50:31.751Z,123.50
2022-12-11T01:51:31.593Z,124.80
2022-12-11T01:52:31.592Z,125.30
2022-12-11T01:53:31.537Z,123.10
2022-12-11T01:54:32.264Z,114.10
2022-12-11T01:55:31.514Z,119.70
2022-12-11T01:56:31.665Z,115.60
2022-12-11T01:57:31.515Z,122.90
2022-12-11T01:58:31.498Z,130.30
2022-12-11T01:59:31.484Z,133.20
2022-12-11T02:00:31.498Z,133.50
2022-12-11T02:01:31.505Z,116.90
2022-12-11T02:02:31.565Z,117.40
2022-12-11T02:03:31.408Z,114.10
2022-12-11T02:04:31.454Z,119.10
2022-12-11T02:05:31.410Z,131.20
2022-12-11T02:06:31.400Z,134.60
2022-12-11T02:07:31.361Z,138.30
2022-12-11T02:08:31.517Z,121.10
2022-12-11T02:09:31.358Z,119.70
2022-12-11T02:10:31.349Z,122.90
2022-12-11T02:11:31.337Z,128.10
2022-12-11T02:12:31.320Z,114.00
2022-12-11T02:13:31.283Z,131.30
2022-12-11T02:14:31.527Z,133.10
2022-12-11T02:15:31.253Z,141.80
2022-12-11T02:16:31.344Z,130.20
2022-12-11T02:17:31.261Z,135.40
2022-12-11T02:18:31.251Z,130.90
2022-12-11T02:19:31.231Z,118.50
2022-12-11T02:20:31.322Z,135.70
2022-12-11T02:21:31.181Z,141.00
2022-12-11T02:22:31.218Z,141.70
2022-12-11T02:23:31.179Z,134.00
2022-12-11T02:24:31.166Z,127.70
2022-12-11T02:25:31.123Z,128.40
2022-12-11T02:26:31.190Z,125.40
2022-12-11T02:27:31.103Z,118.40
2022-12-11T02:28:31.140Z,135.10
2022-12-11T02:29:31.100Z,144.20
2022-12-11T02:30:31.095Z,142.30
2022-12-11T02:31:31.141Z,118.10
2022-12-11T02:32:31.173Z,124.80
2022-12-11T02:33:31.024Z,127.00
2022-12-11T02:34:31.061Z,122.10
2022-12-11T02:35:30.994Z,133.70
2022-12-11T02:36:31.041Z,146.00
2022-12-11T02:37:31.007Z,141.50
2022-12-11T02:38:31.105Z,125.20
2022-12-11T02:39:30.973Z,130.00
2022-12-11T02:40:30.955Z,124.00
2022-12-11T02:41:30.916Z,126.10
2022-12-11T02:42:30.962Z,126.90
2022-12-11T02:43:30.888Z,141.70
2022-12-11T02:44:30.972Z,132.30
2022-12-11T02:45:30.925Z,135.30
2022-12-11T02:46:30.877Z,127.30
2022-12-11T02:47:30.863Z,128.50
2022-12-11T02:48:30.859Z,129.70
2022-12-11T02:49:30.808Z,121.20
2022-12-11T02:50:30.880Z,141.00
2022-12-11T02:51:30.790Z,140.10
2022-12-11T02:52:30.833Z,133.70
2022-12-11T02:53:30.785Z,144.40
2022-12-11T02:54:30.816Z,129.60
2022-12-11T02:55:30.737Z,133.40
2022-12-11T02:56:30.927Z,142.50
2022-12-11T02:57:30.735Z,124.90
2022-12-11T02:58:30.720Z,150.70
2022-12-11T02:59:30.706Z,153.40
2022-12-11T03:00:30.699Z,157.20
2022-12-11T03:01:30.759Z,134.80
2022-12-11T03:02:30.782Z,139.80
2022-12-11T03:03:30.630Z,148.40
2022-12-11T03:04:30.677Z,141.20
2022-12-11T03:05:30.635Z,157.30
2022-12-11T03:06:30.620Z,151.90
2022-12-11T03:07:30.617Z,152.80
2022-12-11T03:08:30.765Z,131.00
2022-12-11T03:09:30.555Z,138.60
2022-12-11T03:10:30.596Z,139.80
2022-12-11T03:11:30.558Z,133.40
2022-12-11T03:12:30.541Z,158.90
2022-12-11T03:13:30.502Z,153.10
2022-12-11T03:14:30.649Z,145.90
2022-12-11T03:15:30.471Z,150.50
2022-12-11T03:16:30.562Z,158.30
2022-12-11T03:17:30.479Z,153.20
2022-12-11T03:18:30.463Z,141.80
2022-12-11T03:19:30.451Z,155.20
2022-12-11T03:20:30.474Z,161.30
2022-12-11T03:21:30.393Z,136.90
2022-12-11T03:22:30.439Z,151.00
2022-12-11T03:23:30.363Z,150.70
2022-12-11T03:24:30.411Z,139.30
2022-12-11T03:25:30.371Z,148.60
2022-12-11T03:26:30.387Z,163.70
2022-12-11T03:27:30.315Z,167.00
2022-12-11T03:28:30.361Z,151.50
2022-12-11T03:29:30.320Z,163.50
2022-12-11T03:30:31.039Z,174.70
2022-12-11T03:31:30.299Z,154.60
2022-12-11T03:32:30.305Z,178.80
2022-12-11T03:33:30.246Z,191.00
2022-12-11T03:34:30.327Z,173.60
2022-12-11T03:35:30.217Z,182.50
2022-12-11T03:36:30.261Z,207.60
2022-12-11T03:37:30.213Z,174.80
2022-12-11T03:38:30.316Z,202.80
2022-12-11T03:39:30.195Z,173.00
2022-12-11T03:40:30.179Z,180.80
2022-12-11T03:41:30.137Z,204.80
2022-12-11T03:42:30.180Z,195.60
2022-12-11T03:43:30.138Z,210.70
2022-12-11T03:44:30.242Z,203.30
2022-12-11T03:45:30.142Z,207.60
2022-12-11T03:46:30.119Z,204.90
2022-12-11T03:47:30.163Z,204.10
2022-12-11T03:48:30.047Z,203.10
2022-12-11T03:49:30.058Z,222.20
2022-12-11T03:50:30.163Z,208.00
2022-12-11T03:51:30.043Z,209.10
2022-12-11T03:52:30.024Z,215.50
2022-12-11T03:53:30.076Z,238.60
2022-12-11T03:54:29.969Z,230.20
2022-12-11T03:55:30.008Z,232.00
2022-12-11T03:56:30.057Z,213.40
2022-12-11T03:57:29.963Z,222.70
2022-12-11T03:58:29.945Z,221.10
2022-12-11T03:59:29.956Z,237.40
2022-12-11T04:00:29.889Z,232.30
2022-12-11T04:01:29.943Z,219.60
2022-12-11T04:02:29.927Z,227.90
2022-12-11T04:03:29.882Z,224.60
2022-12-11T04:04:29.891Z,221.00
2022-12-11T04:05:29.928Z,224.00
2022-12-11T04:06:29.811Z,232.30
2022-12-11T04:07:29.857Z,218.50
2022-12-11T04:08:29.977Z,237.10
2022-12-11T04:09:29.802Z,246.30
2022-12-11T04:10:29.789Z,233.50
2022-12-11T04:11:29.773Z,219.10
2022-12-11T04:12:29.769Z,236.20
2022-12-11T04:13:29.778Z,283.00
2022-12-11T04:14:29.813Z,271.80
2022-12-11T04:15:29.725Z,260.30
2022-12-11T04:16:29.711Z,267.10
2022-12-11T04:17:29.740Z,255.30
2022-12-11T04:18:29.653Z,239.20
2022-12-11T04:19:29.701Z,241.50
2022-12-11T04:20:29.734Z,292.10
2022-12-11T04:21:29.645Z,237.70
2022-12-11T04:22:29.633Z,238.10
2022-12-11T04:23:29.623Z,249.20
2022-12-11T04:24:29.612Z,246.40
2022-12-11T04:25:29.623Z,252.90
2022-12-11T04:26:29.576Z,237.30
2022-12-11T04:27:29.593Z,277.90
2022-12-11T04:28:29.526Z,246.90
2022-12-11T04:29:29.544Z,268.40
2022-12-11T04:30:34.150Z,273.30
2022-12-11T04:31:30.587Z,251.10
2022-12-11T04:32:29.477Z,265.50
2022-12-11T04:33:29.487Z,333.60
2022-12-11T04:34:29.473Z,295.60
2022-12-11T04:35:29.471Z,356.90
2022-12-11T04:36:29.458Z,357.30
2022-12-11T04:37:29.493Z,351.50
2022-12-11T04:38:29.398Z,355.10
2022-12-11T04:39:29.443Z,413.50
2022-12-11T04:40:29.368Z,347.50
2022-12-11T04:41:29.388Z,377.90
2022-12-11T04:42:29.374Z,383.50
2022-12-11T04:43:29.379Z,371.00
2022-12-11T04:44:29.346Z,355.50
2022-12-11T04:45:29.358Z,368.40
2022-12-11T04:46:29.356Z,421.60
2022-12-11T04:47:29.335Z,350.60
2022-12-11T04:48:29.269Z,392.00
2022-12-11T04:49:29.389Z,376.30
2022-12-11T04:50:29.266Z,383.90
2022-12-11T04:51:29.263Z,374.80
2022-12-11T04:52:29.246Z,368.50
2022-12-11T04:53:29.261Z,433.10
2022-12-11T04:54:29.191Z,360.90
2022-12-11T04:55:29.256Z,389.60
2022-12-11T04:56:29.160Z,398.90
2022-12-11T04:57:29.180Z,376.80
2022-12-11T04:58:29.170Z,402.90
2022-12-11T04:59:29.155Z,446.60
2022-12-11T05:00:29.137Z,356.80
2022-12-11T05:01:29.317Z,429.70
2022-12-11T05:02:29.112Z,441.80
2022-12-11T05:03:29.109Z,412.10
2022-12-11T05:04:29.088Z,414.40
2022-12-11T05:05:29.098Z,474.80
2022-12-11T05:06:29.034Z,487.70
2022-12-11T05:07:29.186Z,420.60
2022-12-11T05:08:29.005Z,407.30
2022-12-11T05:09:29.023Z,426.70
2022-12-11T05:10:29.009Z,411.00
2022-12-11T05:11:28.994Z,428.30
2022-12-11T05:12:29.076Z,459.50
2022-12-11T05:13:29.124Z,393.00
2022-12-11T05:14:29.134Z,449.50
2022-12-11T05:15:29.036Z,457.10
2022-12-11T05:16:29.050Z,444.00
2022-12-11T05:17:29.016Z,427.20
2022-12-11T05:18:29.781Z,441.60
2022-12-11T05:19:29.069Z,514.30
2022-12-11T05:20:28.877Z,399.10
2022-12-11T05:21:34.606Z,445.90
2022-12-11T05:22:29.877Z,465.00
2022-12-11T05:23:28.848Z,467.00
2022-12-11T05:24:28.844Z,480.70
2022-12-11T05:25:28.897Z,455.00
2022-12-11T05:26:28.782Z,483.80
2022-12-11T05:27:28.834Z,498.50
2022-12-11T05:28:28.750Z,459.10
2022-12-11T05:29:28.789Z,479.40
2022-12-11T05:30:28.756Z,547.40
2022-12-11T05:31:28.953Z,464.70
2022-12-11T05:32:28.727Z,493.30
2022-12-11T05:33:28.749Z,489.60
2022-12-11T05:34:28.672Z,501.80
2022-12-11T05:35:28.701Z,483.70
2022-12-11T05:36:28.688Z,472.00
2022-12-11T05:37:28.728Z,545.10
2022-12-11T05:38:28.632Z,523.10
2022-12-11T05:39:28.720Z,486.00
2022-12-11T05:40:28.603Z,513.20
2022-12-11T05:41:28.621Z,498.80
2022-12-11T05:42:29.266Z,488.20
2022-12-11T05:43:28.623Z,484.70
2022-12-11T05:44:28.589Z,505.90
2022-12-11T05:45:28.592Z,543.10
2022-12-11T05:46:28.560Z,467.10
2022-12-11T05:47:28.578Z,494.70
2022-12-11T05:48:28.494Z,483.70
2022-12-11T05:49:31.073Z,498.80
2022-12-11T05:50:28.510Z,477.50
2022-12-11T05:51:28.497Z,488.30
2022-12-11T05:52:28.480Z,510.60
2022-12-11T05:53:29.206Z,487.50
2022-12-11T05:54:28.425Z,484.00
2022-12-11T05:55:28.571Z,482.30
2022-12-11T05:56:28.395Z,473.40
2022-12-11T05:57:28.415Z,490.30
2022-12-11T05:58:28.403Z,533.00
2022-12-11T05:59:28.395Z,458.90
2022-12-11T06:00:31.613Z,454.30
2022-12-11T06:01:30.253Z,457.50
2022-12-11T06:02:28.402Z,447.20
2022-12-11T06:03:28.365Z,487.20
2022-12-11T06:04:28.296Z,450.80
2022-12-11T06:05:28.316Z,468.80
2022-12-11T06:06:28.282Z,467.40
2022-12-11T06:07:28.356Z,468.10
2022-12-11T06:08:28.287Z,440.30
2022-12-11T06:09:28.266Z,462.70
2022-12-11T06:10:28.272Z,490.60
2022-12-11T06:11:28.216Z,475.20
2022-12-11T06:12:28.215Z,374.70
2022-12-11T06:13:28.347Z,425.60
2022-12-11T06:14:28.168Z,427.70
2022-12-11T06:15:28.216Z,424.30
2022-12-11T06:16:28.208Z,393.60
2022-12-11T06:17:28.149Z,453.90
2022-12-11T06:18:28.145Z,486.30
2022-12-11T06:19:32.021Z,397.80
2022-12-11T06:20:29.121Z,392.90
2022-12-11T06:21:28.129Z,403.20
2022-12-11T06:22:28.067Z,413.40
2022-12-11T06:23:28.094Z,433.00
2022-12-11T06:24:28.065Z,378.80
2022-12-11T06:25:28.174Z,382.30
2022-12-11T06:26:28.008Z,363.90
2022-12-11T06:27:28.049Z,357.20
2022-12-11T06:28:27.981Z,376.90
2022-12-11T06:29:28.001Z,432.50
2022-12-11T06:30:38.375Z,361.90
2022-12-11T06:31:29.151Z,370.90
2022-12-11T06:32:27.967Z,336.50
2022-12-11T06:33:27.999Z,376.90
2022-12-11T06:34:27.911Z,362.10
2022-12-11T06:35:27.940Z,338.00
2022-12-11T06:36:27.885Z,328.60
2022-12-11T06:37:27.934Z,362.50
2022-12-11T06:38:27.908Z,378.30
2022-12-11T06:39:27.889Z,286.60
2022-12-11T06:40:27.846Z,293.90
2022-12-11T06:41:27.843Z,326.80
2022-12-11T06:42:27.821Z,319.20
2022-12-11T06:43:27.946Z,326.00
2022-12-11T06:44:27.802Z,381.40
2022-12-11T06:45:27.929Z,327.20
2022-12-11T06:46:27.802Z,331.20
2022-12-11T06:47:27.812Z,347.60
2022-12-11T06:48:27.725Z,320.60
2022-12-11T06:49:27.785Z,342.30
2022-12-11T06:50:27.824Z,323.30
2022-12-11T06:51:27.711Z,366.60
2022-12-11T06:52:28.415Z,360.40
2022-12-11T06:53:27.702Z,325.60
2022-12-11T06:54:27.657Z,353.90
2022-12-11T06:55:27.722Z,347.20
2022-12-11T06:56:27.645Z,332.60
2022-12-11T06:57:27.636Z,321.90
2022-12-11T06:58:27.632Z,336.60
2022-12-11T06:59:27.614Z,304.90
2022-12-11T07:00:27.603Z,304.60
2022-12-11T07:01:27.742Z,342.30
2022-12-11T07:02:27.618Z,288.40
2022-12-11T07:03:27.584Z,286.60
2022-12-11T07:04:27.526Z,301.90
2022-12-11T07:05:27.537Z,310.90
2022-12-11T07:06:27.524Z,321.10
2022-12-11T07:07:27.684Z,294.90
2022-12-11T07:08:27.500Z,292.10
2022-12-11T07:09:27.508Z,337.20
2022-12-11T07:10:27.439Z,302.60
2022-12-11T07:11:27.460Z,276.50
2022-12-11T07:12:27.446Z,253.30
2022-12-11T07:13:27.509Z,289.00
2022-12-11T07:14:27.390Z,301.00
2022-12-11T07:15:28.463Z,274.40
2022-12-11T07:16:27.417Z,238.10
2022-12-11T07:17:27.392Z,280.50
2022-12-11T07:18:27.367Z,285.50
2022-12-11T07:19:27.469Z,248.30
2022-12-11T07:20:27.358Z,260.40
2022-12-11T07:21:27.360Z,258.00
2022-12-11T07:22:28.021Z,266.50
2022-12-11T07:23:28.260Z,266.00
2022-12-11T07:24:27.254Z,278.40
2022-12-11T07:25:27.371Z,258.50
2022-12-11T07:26:27.260Z,246.60
2022-12-11T07:27:27.278Z,244.80
2022-12-11T07:28:27.214Z,244.90
2022-12-11T07:29:27.303Z,269.40
2022-12-11T07:30:27.297Z,279.10
2022-12-11T07:31:27.449Z,226.80
2022-12-11T07:32:27.366Z,232.60
2022-12-11T07:33:27.201Z,240.10
2022-12-11T07:34:27.129Z,239.80
2022-12-11T07:35:27.331Z,250.80
2022-12-11T07:36:27.110Z,223.60
2022-12-11T07:37:27.242Z,246.50
2022-12-11T07:38:27.111Z,233.30
2022-12-11T07:39:27.098Z,234.50
2022-12-11T07:40:27.145Z,231.60
2022-12-11T07:41:27.101Z,236.10
2022-12-11T07:42:27.026Z,228.00
2022-12-11T07:43:27.084Z,222.10
2022-12-11T07:44:27.033Z,257.30
2022-12-11T07:45:27.150Z,232.10
2022-12-11T07:46:27.002Z,235.10
2022-12-11T07:47:27.022Z,232.80
2022-12-11T07:48:26.955Z,262.40
2022-12-11T07:49:27.096Z,236.40
2022-12-11T07:50:27.023Z,225.60
2022-12-11T07:51:27.025Z,241.90
2022-12-11T07:52:26.933Z,237.50
2022-12-11T07:53:26.933Z,224.50
2022-12-11T07:54:26.877Z,225.80
2022-12-11T07:55:26.944Z,230.90
2022-12-11T07:56:26.850Z,215.00
2022-12-11T07:57:26.871Z,215.80
2022-12-11T07:58:26.849Z,241.60
2022-12-11T07:59:26.835Z,253.70
2022-12-11T08:00:26.915Z,239.80
2022-12-11T08:01:26.948Z,227.70
2022-12-11T08:02:26.869Z,247.20
2022-12-11T08:03:27.058Z,234.30
2022-12-11T08:04:26.806Z,232.70
2022-12-11T08:05:26.773Z,223.30
2022-12-11T08:06:26.766Z,246.70
2022-12-11T08:07:26.765Z,225.30
2022-12-11T08:08:26.750Z,211.80
2022-12-11T08:09:26.707Z,227.00
2022-12-11T08:10:26.736Z,235.60
2022-12-11T08:11:26.660Z,214.40
2022-12-11T08:12:26.686Z,219.00
2022-12-11T08:13:26.756Z,236.00
2022-12-11T08:14:26.641Z,216.60
2022-12-11T08:15:26.602Z,213.70
2022-12-11T08:16:26.677Z,223.80
2022-12-11T08:17:30.247Z,221.70
2022-12-11T08:18:27.701Z,226.90
2022-12-11T08:19:26.594Z,224.10
2022-12-11T08:20:26.560Z,233.70
2022-12-11T08:21:26.524Z,196.40
2022-12-11T08:22:26.568Z,197.30
2022-12-11T08:23:26.539Z,220.80
2022-12-11T08:24:26.570Z,210.20
2022-12-11T08:25:26.509Z,199.50
2022-12-11T08:26:26.509Z,226.00
2022-12-11T08:27:26.471Z,225.40
2022-12-11T08:28:27.398Z,203.90
2022-12-11T08:29:27.390Z,218.30
2022-12-11T08:30:26.525Z,211.20
2022-12-11T08:31:26.421Z,212.10
2022-12-11T08:32:26.515Z,198.90
2022-12-11T08:33:26.365Z,208.10
2022-12-11T08:34:26.542Z,211.20
2022-12-11T08:35:26.346Z,203.30
2022-12-11T08:36:26.551Z,197.20
2022-12-11T08:37:26.349Z,188.30
2022-12-11T08:38:26.385Z,190.80
2022-12-11T08:39:26.323Z,186.80
2022-12-11T08:40:26.359Z,209.60
2022-12-11T08:41:26.259Z,188.30
2022-12-11T08:42:26.343Z,184.70
2022-12-11T08:43:26.237Z,190.10
2022-12-11T08:44:26.287Z,187.00
2022-12-11T08:45:26.245Z,208.10
2022-12-11T08:46:26.269Z,196.20
2022-12-11T08:47:26.198Z,193.20
2022-12-11T08:48:26.355Z,201.60
2022-12-11T08:49:29.845Z,184.20
2022-12-11T08:50:27.177Z,178.20
2022-12-11T08:51:26.166Z,198.90
2022-12-11T08:52:26.228Z,194.80
2022-12-11T08:53:26.108Z,193.10
2022-12-11T08:54:26.284Z,214.40
2022-12-11T08:55:26.079Z,218.00
2022-12-11T08:56:26.128Z,197.10
2022-12-11T08:57:26.077Z,183.50
2022-12-11T08:58:26.069Z,187.00
2022-12-11T08:59:26.057Z,207.00
2022-12-11T09:00:26.100Z,179.50
2022-12-11T09:01:26.107Z,184.00
2022-12-11T09:02:26.135Z,199.40
2022-12-11T09:03:25.993Z,209.50
2022-12-11T09:04:26.007Z,188.70
2022-12-11T09:05:25.975Z,182.30
2022-12-11T09:06:26.002Z,190.20
2022-12-11T09:07:25.959Z,194.30
2022-12-11T09:08:26.092Z,172.80
2022-12-11T09:09:25.892Z,194.80
2022-12-11T09:10:25.928Z,196.20
2022-12-11T09:11:25.881Z,187.80
2022-12-11T09:12:26.039Z,164.00
2022-12-11T09:13:25.877Z,175.80
2022-12-11T09:14:25.871Z,186.90
2022-12-11T09:15:25.849Z,158.20
2022-12-11T09:16:25.832Z,177.70
2022-12-11T09:17:25.840Z,196.40
2022-12-11T09:18:25.872Z,182.50
2022-12-11T09:19:31.902Z,157.90
2022-12-11T09:20:26.793Z,169.90
2022-12-11T09:21:25.735Z,181.40
2022-12-11T09:22:25.790Z,150.70
2022-12-11T09:23:25.715Z,162.30
2022-12-11T09:24:26.011Z,175.40
2022-12-11T09:25:25.724Z,174.30
2022-12-11T09:26:25.704Z,138.90
2022-12-11T09:27:25.731Z,157.90
2022-12-11T09:28:25.685Z,160.00
2022-12-11T09:29:25.622Z,131.90
2022-12-11T09:30:25.812Z,147.10
2022-12-11T09:31:25.629Z,164.40
2022-12-11T09:32:25.676Z,151.30
2022-12-11T09:33:25.612Z,130.00
2022-12-11T09:34:29.091Z,140.20
2022-12-11T09:35:25.568Z,151.80
2022-12-11T09:36:25.737Z,150.70
2022-12-11T09:37:25.564Z,153.80
2022-12-11T09:38:25.668Z,156.60
2022-12-11T09:39:25.532Z,159.30
2022-12-11T09:40:25.531Z,150.70
2022-12-11T09:41:25.478Z,126.00
2022-12-11T09:42:25.554Z,125.20
2022-12-11T09:43:25.438Z,123.90
2022-12-11T09:44:25.482Z,103.70
2022-12-11T09:45:25.465Z,117.10
2022-12-11T09:46:26.913Z,125.10
2022-12-11T09:47:25.406Z,122.40
2022-12-11T09:48:25.648Z,106.30
2022-12-11T09:49:25.389Z,112.70
2022-12-11T09:50:25.432Z,120.80
2022-12-11T09:51:25.366Z,115.70
2022-12-11T09:52:25.421Z,107.70
2022-12-11T09:53:27.776Z,134.10
2022-12-11T09:54:26.479Z,127.50
2022-12-11T09:55:26.128Z,125.00
2022-12-11T09:56:25.480Z,107.10
2022-12-11T09:57:25.297Z,105.80
2022-12-11T09:58:25.281Z,113.90
2022-12-11T09:59:25.267Z,106.70
2022-12-11T10:00:25.389Z,102.50
2022-12-11T10:01:25.232Z,104.90
2022-12-11T10:02:25.314Z,112.00
2022-12-11T10:03:25.185Z,104.70
2022-12-11T10:04:25.300Z,119.60
2022-12-11T10:05:25.190Z,117.40
2022-12-11T10:06:25.301Z,109.10
2022-12-11T10:07:25.159Z,106.90
2022-12-11T10:08:25.226Z,110.10
2022-12-11T10:09:25.111Z,108.30
2022-12-11T10:10:25.855Z,107.80
2022-12-11T10:11:25.085Z,109.20
2022-12-11T10:12:25.172Z,107.80
2022-12-11T10:13:25.093Z,97.20
2022-12-11T10:14:25.124Z,92.10
2022-12-11T10:15:25.062Z,106.00
2022-12-11T10:16:25.052Z,101.20
2022-12-11T10:17:25.006Z,103.50
2022-12-11T10:18:25.161Z,105.20
2022-12-11T10:19:24.985Z,105.90
2022-12-11T10:20:25.022Z,106.20
2022-12-11T10:21:25.012Z,99.40
2022-12-11T10:22:24.954Z,101.80
2022-12-11T10:23:24.926Z,96.70
2022-12-11T10:24:59.319Z,102.20
2022-12-11T10:25:26.050Z,85.70
2022-12-11T10:26:24.917Z,97.30
2022-12-11T10:27:25.667Z,105.40
2022-12-11T10:28:25.652Z,99.30
2022-12-11T10:29:24.850Z,96.60
2022-12-11T10:30:24.935Z,101.50
2022-12-11T10:31:24.866Z,108.80
2022-12-11T10:32:24.884Z,108.40
2022-12-11T10:33:24.824Z,108.60
2022-12-11T10:34:24.830Z,109.90
2022-12-11T10:35:24.795Z,105.40
2022-12-11T10:36:24.820Z,107.90
2022-12-11T10:37:24.749Z,99.80
2022-12-11T10:38:24.796Z,102.80
2022-12-11T10:39:24.746Z,110.30
2022-12-11T10:40:24.736Z,107.20
2022-12-11T10:41:24.706Z,97.20
2022-12-11T10:42:24.916Z,111.10
2022-12-11T10:43:24.669Z,96.10
2022-12-11T10:44:24.706Z,94.20
2022-12-11T10:45:24.664Z,100.80
2022-12-11T10:46:24.703Z,101.00
2022-12-11T10:47:24.635Z,92.00
2022-12-11T10:48:24.747Z,105.50
2022-12-11T10:49:24.591Z,101.40
2022-12-11T10:50:24.657Z,108.60
2022-12-11T10:51:24.558Z,104.10
2022-12-11T10:52:24.592Z,103.60
2022-12-11T10:53:24.558Z,97.70
2022-12-11T10:54:24.568Z,107.70
2022-12-11T10:55:24.513Z,91.60
2022-12-11T10:56:24.549Z,103.20
2022-12-11T10:57:24.509Z,105.90
2022-12-11T10:58:24.490Z,95.60
2022-12-11T10:59:24.500Z,104.60
2022-12-11T11:00:24.584Z,107.70
2022-12-11T11:01:24.489Z,101.70
2022-12-11T11:02:24.498Z,109.80
2022-12-11T11:03:24.426Z,113.80
2022-12-11T11:04:24.463Z,117.40
2022-12-11T11:05:24.405Z,84.90
2022-12-11T11:06:24.680Z,97.70
2022-12-11T11:07:24.400Z,99.10
2022-12-11T11:08:24.450Z,102.90
2022-12-11T11:09:24.333Z,91.40
2022-12-11T11:10:24.459Z,115.30
2022-12-11T11:11:24.295Z,112.30
2022-12-11T11:12:24.383Z,102.70
2022-12-11T11:13:25.101Z,98.30
2022-12-11T11:14:24.285Z,97.40
2022-12-11T11:15:24.281Z,88.60
2022-12-11T11:16:24.306Z,102.20
2022-12-11T11:17:24.217Z,110.10
2022-12-11T11:18:24.494Z,107.50
2022-12-11T11:19:24.184Z,93.80
2022-12-11T11:20:24.243Z,92.10
2022-12-11T11:21:24.184Z,104.20
2022-12-11T11:22:24.199Z,98.10
2022-12-11T11:23:24.173Z,91.70
2022-12-11T11:24:24.188Z,102.40
2022-12-11T11:25:24.125Z,101.50
2022-12-11T11:26:24.168Z,109.30
2022-12-11T11:27:24.123Z,98.20
2022-12-11T11:28:24.098Z,102.70
2022-12-11T11:29:24.069Z,95.90
2022-12-11T11:30:24.286Z,86.50
2022-12-11T11:31:24.102Z,100.80
2022-12-11T11:32:24.088Z,96.00
2022-12-11T11:33:24.035Z,97.50
2022-12-11T11:34:24.017Z,76.40
2022-12-11T11:35:24.017Z,92.40
2022-12-11T11:36:24.102Z,106.00
2022-12-11T11:37:23.954Z,104.90
2022-12-11T11:38:24.009Z,96.20
2022-12-11T11:39:23.930Z,97.80
2022-12-11T11:40:24.807Z,84.30
2022-12-11T11:41:23.939Z,87.00
2022-12-11T11:42:24.181Z,90.40
2022-12-11T11:43:23.872Z,94.60
2022-12-11T11:44:23.909Z,84.50
2022-12-11T11:45:23.887Z,93.50
2022-12-11T11:46:23.907Z,95.30
2022-12-11T11:47:23.858Z,102.60
2022-12-11T11:48:23.880Z,85.90
2022-12-11T11:49:23.812Z,85.30
2022-12-11T11:50:23.846Z,96.60
2022-12-11T11:51:23.777Z,102.00
2022-12-11T11:52:23.830Z,105.90
2022-12-11T11:53:23.781Z,86.10
2022-12-11T11:54:23.781Z,95.20
2022-12-11T11:55:24.132Z,84.80
2022-12-11T11:56:23.742Z,93.60
2022-12-11T11:57:23.694Z,87.50
2022-12-11T11:58:23.740Z,93.80
2022-12-11T11:59:23.701Z,97.40
2022-12-11T12:00:23.824Z,108.10
2022-12-11T12:01:23.657Z,87.80
2022-12-11T12:02:23.712Z,90.40
2022-12-11T12:03:23.604Z,90.10
2022-12-11T12:04:23.673Z,90.40
2022-12-11T12:05:23.608Z,110.40
2022-12-11T12:06:23.636Z,111.50
2022-12-11T12:07:23.594Z,109.70
2022-12-11T12:08:23.612Z,101.00
2022-12-11T12:09:23.584Z,90.50
2022-12-11T12:10:23.600Z,96.90
2022-12-11T12:11:23.515Z,97.50
2022-12-11T12:12:28.557Z,89.70
2022-12-11T12:13:48.752Z,85.80
2022-12-11T12:14:51.169Z,98.90
2022-12-11T12:15:24.626Z,105.50
2022-12-11T12:16:51.785Z,100.50
2022-12-11T12:17:24.579Z,91.50
2022-12-11T12:18:23.427Z,83.70
2022-12-11T12:19:23.456Z,97.90
2022-12-11T12:20:23.406Z,85.50
2022-12-11T12:21:23.417Z,96.80
2022-12-11T12:22:23.396Z,97.40
2022-12-11T12:23:23.458Z,94.00
2022-12-11T12:24:23.376Z,95.00
2022-12-11T12:25:23.376Z,97.50
2022-12-11T12:26:23.329Z,97.10
2022-12-11T12:28:24.318Z,90.50
2022-12-11T12:29:23.327Z,101.20
2022-12-11T12:30:24.199Z,92.10
2022-12-11T12:31:23.379Z,100.50
2022-12-11T12:32:23.241Z,99.60